Time;durP1;ratioP1;P1;durP2;ratioP2;P2;SDS_P1;SDS_P2;PMS_P1;PMS_P2;Temp;Humidity;BMP_temperature;BMP_pressure;BME280_temperature;BME280_humidity;BME280_pressure;Samples;Min_cycle;Max_cycle;Signal;HPM_P1;HPM_P2
2023/05/11 00:01:53;;;;;;;;;;;14.20;99.90;;;;;;4953140;28;19918;-64
2023/05/11 00:04:18;;;;;;;;;;;14.20;99.90;;;;;;4951559;28;20484;-64
2023/05/11 00:06:44;;;;;;;;;;;14.30;99.90;;;;;;4955642;28;19919;-64
2023/05/11 00:09:10;;;;;;;;;;;14.30;99.90;;;;;;4950247;28;19926;-64
2023/05/11 00:11:36;;;;;;;;;;;14.20;99.90;;;;;;4949070;28;20032;-64
2023/05/11 00:14:02;;;;;;;;;;;14.20;99.90;;;;;;4948515;28;20013;-64
2023/05/11 00:16:27;;;;;;;;;;;14.20;99.90;;;;;;4948260;28;19914;-64
2023/05/11 00:18:53;;;;;;;;;;;14.20;99.90;;;;;;4951026;28;19914;-64
2023/05/11 00:21:18;;;;;;;;;;;14.20;99.90;;;;;;4951434;28;19929;-64
2023/05/11 00:23:44;;;;;;;;;;;14.20;99.90;;;;;;4949613;28;19925;-64
2023/05/11 00:26:09;;;;;;;;;;;14.10;99.90;;;;;;4950165;28;20358;-64
2023/05/11 00:28:35;;;;;;;;;;;14.00;99.90;;;;;;4949763;28;19953;-64
2023/05/11 00:31:00;;;;;;;;;;;14.00;99.90;;;;;;4944611;28;20056;-73
2023/05/11 00:33:26;;;;;;;;;;;14.00;99.90;;;;;;4949488;28;19976;-75
2023/05/11 00:35:52;;;;;;;;;;;14.10;99.90;;;;;;4948373;28;19993;-76
2023/05/11 00:38:17;;;;;;;;;;;14.10;99.90;;;;;;4953901;28;20371;-77
2023/05/11 00:40:43;;;;;;;;;;;14.10;99.90;;;;;;4950202;28;19929;-72
2023/05/11 00:43:08;;;;;;;;;;;14.00;99.90;;;;;;4947087;28;19922;-73
2023/05/11 00:45:34;;;;;;;;;;;14.10;99.90;;;;;;4948067;28;19918;-73
2023/05/11 00:48:00;;;;;;;;;;;14.10;99.90;;;;;;4943000;28;20024;-71
2023/05/11 00:50:26;;;;;;;;;;;14.10;99.90;;;;;;4947660;28;20009;-64
2023/05/11 00:52:51;;;;;;;;;;;14.10;99.90;;;;;;4947578;28;20784;-64
2023/05/11 00:55:20;;;;;;;;;;;14.00;99.90;;;;;;4949934;28;19921;-64
2023/05/11 00:57:45;;;;;;;;;;;14.00;99.90;;;;;;4947482;28;20040;-64
2023/05/11 01:00:11;;;;;;;;;;;13.90;99.90;;;;;;4943790;28;19936;-64
2023/05/11 01:02:37;;;;;;;;;;;13.90;99.90;;;;;;4948745;28;19937;-64
2023/05/11 01:05:03;;;;;;;;;;;13.90;99.90;;;;;;4949606;28;20017;-64
2023/05/11 01:07:51;;;;;;;;;;;13.90;99.90;;;;;;4946792;28;20522;-64
2023/05/11 01:10:26;;;;;;;;;;;13.90;99.90;;;;;;4947443;28;19913;-77
2023/05/11 01:12:57;;;;;;;;;;;14.00;99.90;;;;;;4945394;28;20525;-78
2023/05/11 01:15:35;;;;;;;;;;;14.00;99.90;;;;;;4949470;28;19922;-78
2023/05/11 01:18:11;;;;;;;;;;;14.00;99.90;;;;;;4951614;28;20063;-78
2023/05/11 01:20:36;;;;;;;;;;;14.00;99.90;;;;;;4948121;28;19922;-78
2023/05/11 01:23:21;;;;;;;;;;;14.00;99.90;;;;;;4948199;28;19917;-78
2023/05/11 01:25:50;;;;;;;;;;;14.00;99.90;;;;;;4947941;28;19922;-78
2023/05/11 01:28:35;;;;;;;;;;;14.00;99.90;;;;;;4944961;28;20638;-65
2023/05/11 01:31:10;;;;;;;;;;;13.90;99.90;;;;;;4946428;28;20009;-79
2023/05/11 01:33:38;;;;;;;;;;;14.00;99.90;;;;;;4944281;28;19921;-78
2023/05/11 01:36:05;;;;;;;;;;;14.00;99.90;;;;;;4945902;28;20402;-78
2023/05/11 01:38:32;;;;;;;;;;;13.90;99.90;;;;;;4945978;28;19910;-78
2023/05/11 01:40:59;;;;;;;;;;;13.90;99.90;;;;;;4946519;28;19922;-78
2023/05/11 01:43:26;;;;;;;;;;;13.90;99.90;;;;;;4950504;28;20056;-79
2023/05/11 01:45:54;;;;;;;;;;;13.80;99.90;;;;;;4947409;28;19961;-78
2023/05/11 01:48:21;;;;;;;;;;;13.80;99.90;;;;;;4945295;28;19996;-79
2023/05/11 01:50:48;;;;;;;;;;;13.80;99.90;;;;;;4951497;28;19973;-80
2023/05/11 01:53:14;;;;;;;;;;;13.80;99.90;;;;;;4946133;28;20423;-80
2023/05/11 01:55:41;;;;;;;;;;;13.80;99.90;;;;;;4945290;28;19914;-80
2023/05/11 01:58:07;;;;;;;;;;;13.80;99.90;;;;;;4948536;28;19918;-80
2023/05/11 02:00:33;;;;;;;;;;;13.80;99.90;;;;;;4947803;28;19939;-79
2023/05/11 02:03:00;;;;;;;;;;;13.80;99.90;;;;;;4952385;28;19974;-78
2023/05/11 02:05:26;;;;;;;;;;;13.70;99.90;;;;;;4946925;28;19918;-77
2023/05/11 02:07:53;;;;;;;;;;;13.70;99.90;;;;;;4953381;28;19989;-63
2023/05/11 02:10:19;;;;;;;;;;;13.70;99.90;;;;;;4949957;28;19997;-64
2023/05/11 02:12:45;;;;;;;;;;;13.70;99.90;;;;;;4948052;28;20374;-64
2023/05/11 02:15:11;;;;;;;;;;;13.60;99.90;;;;;;4948631;28;19953;-64
2023/05/11 02:17:37;;;;;;;;;;;13.60;99.90;;;;;;4946938;28;20017;-64
2023/05/11 02:20:04;;;;;;;;;;;13.60;99.90;;;;;;4945391;28;19928;-64
2023/05/11 02:22:30;;;;;;;;;;;13.60;99.90;;;;;;4943731;28;19926;-64
2023/05/11 02:24:56;;;;;;;;;;;13.50;99.90;;;;;;4942030;28;19965;-64
2023/05/11 02:27:22;;;;;;;;;;;13.50;99.90;;;;;;4948021;28;20884;-78
2023/05/11 02:29:47;;;;;;;;;;;13.50;99.90;;;;;;4948161;28;19914;-78
2023/05/11 02:32:16;;;;;;;;;;;13.50;99.90;;;;;;4948698;28;19914;-79
2023/05/11 02:34:42;;;;;;;;;;;13.40;99.90;;;;;;4948488;28;19929;-79
2023/05/11 02:37:19;;;;;;;;;;;13.40;99.90;;;;;;4950710;28;19918;-78
2023/05/11 02:39:47;;;;;;;;;;;13.40;99.90;;;;;;4953118;28;20497;-78
2023/05/11 02:42:14;;;;;;;;;;;13.40;99.90;;;;;;4947076;28;19925;-79
2023/05/11 02:44:41;;;;;;;;;;;13.40;99.90;;;;;;4953116;28;20950;-64
2023/05/11 02:47:11;;;;;;;;;;;13.40;99.90;;;;;;4950393;28;19918;-64
2023/05/11 02:49:37;;;;;;;;;;;13.40;99.90;;;;;;4954224;28;19969;-64
2023/05/11 02:52:02;;;;;;;;;;;13.30;99.90;;;;;;4954251;28;19957;-64
2023/05/11 02:54:29;;;;;;;;;;;13.30;99.90;;;;;;4953409;28;20397;-64
2023/05/11 02:56:55;;;;;;;;;;;13.30;99.90;;;;;;4949954;28;19922;-63
2023/05/11 02:59:21;;;;;;;;;;;13.30;99.90;;;;;;4949823;28;19914;-64
2023/05/11 03:01:47;;;;;;;;;;;13.30;99.90;;;;;;4952359;28;19993;-64
2023/05/11 03:04:13;;;;;;;;;;;13.20;99.90;;;;;;4953368;28;20379;-77
2023/05/11 03:06:39;;;;;;;;;;;13.20;99.90;;;;;;4952932;28;19910;-77
2023/05/11 03:09:05;;;;;;;;;;;13.20;99.90;;;;;;4952728;28;20824;-77
2023/05/11 03:11:31;;;;;;;;;;;13.20;99.90;;;;;;4953390;28;19917;-77
2023/05/11 03:13:57;;;;;;;;;;;13.20;99.90;;;;;;4953946;28;20374;-77
2023/05/11 03:16:23;;;;;;;;;;;13.10;99.90;;;;;;4956052;28;19914;-77
2023/05/11 03:18:49;;;;;;;;;;;13.10;99.90;;;;;;4951487;28;19918;-77
2023/05/11 03:21:16;;;;;;;;;;;13.00;99.90;;;;;;4954261;28;19925;-78
2023/05/11 03:23:42;;;;;;;;;;;13.00;99.90;;;;;;4947097;28;20032;-64
2023/05/11 03:26:08;;;;;;;;;;;13.00;99.90;;;;;;4953378;28;19918;-64
2023/05/11 03:28:34;;;;;;;;;;;13.00;99.90;;;;;;4953624;28;20390;-64
2023/05/11 03:31:00;;;;;;;;;;;12.90;99.90;;;;;;4949106;28;20045;-64
2023/05/11 03:33:26;;;;;;;;;;;12.90;99.90;;;;;;4952883;28;19972;-64
2023/05/11 03:35:52;;;;;;;;;;;13.00;99.90;;;;;;4955154;28;19914;-64
2023/05/11 03:38:19;;;;;;;;;;;13.00;99.90;;;;;;4954319;28;19911;-64
2023/05/11 03:40:45;;;;;;;;;;;13.00;99.90;;;;;;4957037;28;19926;-64
2023/05/11 03:43:13;;;;;;;;;;;13.00;99.90;;;;;;4952086;28;20027;-79
2023/05/11 03:45:40;;;;;;;;;;;13.00;99.90;;;;;;4955153;28;19910;-77
2023/05/11 03:48:07;;;;;;;;;;;13.10;99.90;;;;;;4950216;28;20290;-76
2023/05/11 03:50:32;;;;;;;;;;;13.00;99.90;;;;;;4954930;28;20267;-78
2023/05/11 03:52:58;;;;;;;;;;;13.10;99.90;;;;;;4954893;28;19990;-78
2023/05/11 03:55:25;;;;;;;;;;;13.00;99.90;;;;;;4950737;28;19918;-78
2023/05/11 03:57:51;;;;;;;;;;;13.00;99.90;;;;;;4955007;28;19913;-78
2023/05/11 04:00:16;;;;;;;;;;;13.10;99.90;;;;;;4956136;28;19925;-77
2023/05/11 04:02:42;;;;;;;;;;;13.10;99.90;;;;;;4955487;28;19924;-78
2023/05/11 04:05:08;;;;;;;;;;;13.10;99.90;;;;;;4951301;28;19918;-78
2023/05/11 04:07:35;;;;;;;;;;;13.10;99.90;;;;;;4952583;28;19997;-77
2023/05/11 04:10:01;;;;;;;;;;;13.10;99.90;;;;;;4956130;28;19910;-78
2023/05/11 04:12:26;;;;;;;;;;;13.10;99.90;;;;;;4957198;28;19921;-77
2023/05/11 04:14:52;;;;;;;;;;;13.10;99.90;;;;;;4951767;28;19914;-78
2023/05/11 04:17:17;;;;;;;;;;;13.10;99.90;;;;;;4948911;28;19918;-77
2023/05/11 04:19:43;;;;;;;;;;;13.20;99.90;;;;;;4952702;28;20438;-65
2023/05/11 04:22:11;;;;;;;;;;;13.20;99.90;;;;;;4947027;28;19914;-77
2023/05/11 04:24:36;;;;;;;;;;;13.20;99.90;;;;;;4957140;28;19914;-77
2023/05/11 04:27:02;;;;;;;;;;;13.30;99.90;;;;;;4951310;28;20016;-74
2023/05/11 04:29:28;;;;;;;;;;;13.30;99.90;;;;;;4951186;28;19973;-76
2023/05/11 04:31:54;;;;;;;;;;;13.30;99.90;;;;;;4952396;28;19914;-76
2023/05/11 04:34:19;;;;;;;;;;;13.40;99.90;;;;;;4950427;28;19989;-78
2023/05/11 04:36:48;;;;;;;;;;;13.40;99.90;;;;;;4952314;28;19953;-73
2023/05/11 04:39:15;;;;;;;;;;;13.40;99.90;;;;;;4950034;28;19921;-66
2023/05/11 04:41:41;;;;;;;;;;;13.50;99.90;;;;;;4950228;28;19962;-64
2023/05/11 04:44:07;;;;;;;;;;;13.50;99.90;;;;;;4956817;28;19910;-65
2023/05/11 04:46:32;;;;;;;;;;;13.50;99.90;;;;;;4951882;28;19921;-65
2023/05/11 04:48:58;;;;;;;;;;;13.50;99.90;;;;;;4952278;28;19926;-64
2023/05/11 04:51:23;;;;;;;;;;;13.50;99.90;;;;;;4948356;28;19953;-65
2023/05/11 04:53:49;;;;;;;;;;;13.50;99.90;;;;;;4951098;28;20828;-65
2023/05/11 04:56:14;;;;;;;;;;;13.50;99.90;;;;;;4944364;28;19922;-65
2023/05/11 04:58:40;;;;;;;;;;;13.60;99.90;;;;;;4965160;28;19988;-66
2023/05/11 05:01:05;;;;;;;;;;;13.60;99.90;;;;;;4947027;28;19934;-65
2023/05/11 05:03:31;;;;;;;;;;;13.60;99.90;;;;;;4950716;28;19926;-66
2023/05/11 05:05:56;;;;;;;;;;;13.60;99.90;;;;;;4950867;28;19946;-64
2023/05/11 05:08:22;;;;;;;;;;;13.70;99.90;;;;;;4948878;28;20004;-64
2023/05/11 05:10:47;;;;;;;;;;;13.70;99.90;;;;;;4950953;28;20379;-65
2023/05/11 05:13:15;;;;;;;;;;;13.70;99.90;;;;;;4951020;28;19921;-64
2023/05/11 05:15:41;;;;;;;;;;;13.80;99.90;;;;;;4951387;28;19914;-65
2023/05/11 05:18:06;;;;;;;;;;;13.80;99.90;;;;;;4948456;28;19917;-65
2023/05/11 05:20:33;;;;;;;;;;;13.80;99.90;;;;;;4951659;28;20391;-65
2023/05/11 05:22:59;;;;;;;;;;;13.80;99.90;;;;;;4952178;28;19949;-65
2023/05/11 05:25:25;;;;;;;;;;;13.70;99.90;;;;;;4951963;28;20090;-65
2023/05/11 05:27:50;;;;;;;;;;;13.80;99.90;;;;;;4953187;28;19917;-65
2023/05/11 05:30:16;;;;;;;;;;;13.90;99.90;;;;;;4946716;28;19918;-65
2023/05/11 05:32:41;;;;;;;;;;;13.90;99.90;;;;;;4941432;28;20354;-66
2023/05/11 05:35:07;;;;;;;;;;;13.90;99.90;;;;;;4949768;28;19918;-65
2023/05/11 05:37:33;;;;;;;;;;;13.90;99.90;;;;;;4946796;28;20470;-66
2023/05/11 05:39:58;;;;;;;;;;;13.90;99.90;;;;;;4948086;28;20016;-65
2023/05/11 05:42:24;;;;;;;;;;;13.90;99.90;;;;;;4948354;28;19914;-65
2023/05/11 05:44:50;;;;;;;;;;;13.80;99.90;;;;;;4948354;28;19918;-65
2023/05/11 05:47:15;;;;;;;;;;;13.80;99.90;;;;;;4953202;28;20493;-65
2023/05/11 05:49:41;;;;;;;;;;;13.80;99.90;;;;;;4953355;28;20107;-65
2023/05/11 05:52:08;;;;;;;;;;;13.90;99.90;;;;;;4949742;28;20363;-65
2023/05/11 05:54:34;;;;;;;;;;;14.00;99.90;;;;;;4957804;28;19917;-66
2023/05/11 05:56:59;;;;;;;;;;;14.10;99.90;;;;;;4958247;28;19921;-65
2023/05/11 05:59:25;;;;;;;;;;;14.00;99.90;;;;;;4956691;28;20300;-65
2023/05/11 06:01:50;;;;;;;;;;;14.10;99.90;;;;;;4957019;28;19928;-65
2023/05/11 06:04:16;;;;;;;;;;;14.20;99.90;;;;;;4956723;28;20838;-65
2023/05/11 06:06:41;;;;;;;;;;;14.30;99.90;;;;;;4950953;28;19921;-66
2023/05/11 06:09:07;;;;;;;;;;;14.40;99.90;;;;;;4954659;28;20301;-67
2023/05/11 06:11:33;;;;;;;;;;;14.50;99.90;;;;;;4955229;28;20365;-65
2023/05/11 06:13:58;;;;;;;;;;;14.60;99.90;;;;;;4957605;28;20173;-65
2023/05/11 06:16:27;;;;;;;;;;;14.60;99.90;;;;;;4959545;28;20409;-65
2023/05/11 06:18:52;;;;;;;;;;;14.60;99.90;;;;;;4960963;28;20298;-65
2023/05/11 06:21:18;;;;;;;;;;;14.60;99.90;;;;;;4959867;28;20683;-65
2023/05/11 06:23:43;;;;;;;;;;;14.70;99.90;;;;;;4957777;28;19914;-65
2023/05/11 06:26:10;;;;;;;;;;;14.80;99.90;;;;;;4961301;28;19920;-65
2023/05/11 06:28:36;;;;;;;;;;;14.90;99.90;;;;;;4957353;28;20335;-65
2023/05/11 06:31:02;;;;;;;;;;;14.90;99.90;;;;;;4950441;28;19914;-66
2023/05/11 06:33:28;;;;;;;;;;;15.00;99.90;;;;;;4956342;28;20025;-65
2023/05/11 06:35:53;;;;;;;;;;;15.10;99.90;;;;;;4960365;28;20683;-78
2023/05/11 06:38:19;;;;;;;;;;;15.10;99.90;;;;;;4965857;28;19920;-78
2023/05/11 06:40:44;;;;;;;;;;;15.10;99.90;;;;;;4964518;28;19923;-77
2023/05/11 06:43:10;;;;;;;;;;;15.10;99.90;;;;;;4960110;28;20368;-77
2023/05/11 06:45:36;;;;;;;;;;;15.20;99.90;;;;;;4962655;28;19988;-77
2023/05/11 06:48:02;;;;;;;;;;;15.10;99.90;;;;;;4960249;28;19920;-78
2023/05/11 06:50:28;;;;;;;;;;;15.10;99.90;;;;;;4962637;28;19946;-78
2023/05/11 06:52:53;;;;;;;;;;;15.20;99.90;;;;;;4957923;28;20443;-66
2023/05/11 06:55:19;;;;;;;;;;;15.30;99.90;;;;;;4957235;28;19920;-78
2023/05/11 06:57:44;;;;;;;;;;;15.30;99.90;;;;;;4966785;28;19962;-77
2023/05/11 07:00:10;;;;;;;;;;;15.20;99.90;;;;;;4968838;28;20600;-79
2023/05/11 07:02:35;;;;;;;;;;;15.30;99.90;;;;;;4970704;28;19922;-77
2023/05/11 07:05:01;;;;;;;;;;;15.30;99.90;;;;;;4964253;28;19921;-77
2023/05/11 07:07:26;;;;;;;;;;;15.40;99.90;;;;;;4973866;28;19914;-78
2023/05/11 07:09:52;;;;;;;;;;;15.50;99.90;;;;;;4971845;28;19937;-76
2023/05/11 07:12:17;;;;;;;;;;;15.50;99.90;;;;;;4969526;28;19914;-77
2023/05/11 07:14:43;;;;;;;;;;;15.40;99.90;;;;;;4964845;28;19914;-77
2023/05/11 07:17:08;;;;;;;;;;;15.50;99.90;;;;;;4967626;28;19910;-77
2023/05/11 07:19:34;;;;;;;;;;;15.50;99.90;;;;;;4964868;28;19918;-77
2023/05/11 07:22:00;;;;;;;;;;;15.60;99.90;;;;;;4971203;28;20325;-77
2023/05/11 07:24:26;;;;;;;;;;;15.70;99.90;;;;;;4968714;28;20834;-77
2023/05/11 07:26:52;;;;;;;;;;;15.70;99.90;;;;;;4964400;28;20370;-77
2023/05/11 07:29:17;;;;;;;;;;;15.70;99.90;;;;;;4959457;28;19918;-78
2023/05/11 07:31:43;;;;;;;;;;;15.80;99.90;;;;;;4962091;28;20049;-78
2023/05/11 07:34:08;;;;;;;;;;;15.70;99.90;;;;;;4963904;28;20117;-77
2023/05/11 07:36:34;;;;;;;;;;;15.80;99.90;;;;;;4964923;28;20565;-78
2023/05/11 07:39:00;;;;;;;;;;;15.80;99.90;;;;;;4964840;28;19944;-78
2023/05/11 07:41:26;;;;;;;;;;;15.90;99.90;;;;;;4968455;28;19922;-78
2023/05/11 07:43:54;;;;;;;;;;;15.90;99.90;;;;;;4967647;28;19918;-77
2023/05/11 07:46:20;;;;;;;;;;;15.90;99.90;;;;;;4966830;28;19976;-76
2023/05/11 07:48:45;;;;;;;;;;;16.00;99.90;;;;;;4963924;28;19945;-76
2023/05/11 07:51:11;;;;;;;;;;;16.00;99.90;;;;;;4963598;28;20001;-65
2023/05/11 07:53:37;;;;;;;;;;;16.00;99.90;;;;;;4955046;28;20355;-66
2023/05/11 07:56:03;;;;;;;;;;;16.00;99.90;;;;;;4952212;28;19957;-65
2023/05/11 07:58:29;;;;;;;;;;;16.00;99.90;;;;;;4952702;28;19918;-65
2023/05/11 08:00:55;;;;;;;;;;;16.10;99.90;;;;;;4951580;28;20020;-65
2023/05/11 08:03:20;;;;;;;;;;;16.10;99.90;;;;;;4956018;28;19933;-66
2023/05/11 08:05:46;;;;;;;;;;;16.00;99.90;;;;;;4955117;28;19918;-65
2023/05/11 08:08:11;;;;;;;;;;;15.90;99.90;;;;;;4950108;28;20327;-65
2023/05/11 08:10:37;;;;;;;;;;;16.00;99.90;;;;;;4961234;28;19910;-78
2023/05/11 08:13:03;;;;;;;;;;;16.00;99.90;;;;;;4967880;28;19910;-77
2023/05/11 08:15:28;;;;;;;;;;;16.10;99.90;;;;;;4965512;28;19914;-77
2023/05/11 08:17:54;;;;;;;;;;;16.10;99.90;;;;;;4956428;28;19914;-77
2023/05/11 08:20:19;;;;;;;;;;;16.10;99.90;;;;;;4956780;28;19918;-77
2023/05/11 08:22:45;;;;;;;;;;;16.20;99.90;;;;;;4954170;28;19941;-66
2023/05/11 08:25:10;;;;;;;;;;;16.20;99.90;;;;;;4958484;28;20327;-77
2023/05/11 08:27:36;;;;;;;;;;;16.20;99.90;;;;;;4954746;28;20105;-77
2023/05/11 08:30:02;;;;;;;;;;;16.20;99.90;;;;;;4953546;28;20382;-77
2023/05/11 08:32:28;;;;;;;;;;;16.30;99.90;;;;;;4955458;28;19957;-78
2023/05/11 08:34:53;;;;;;;;;;;16.40;99.90;;;;;;4954172;28;20032;-77
2023/05/11 08:37:19;;;;;;;;;;;16.40;99.90;;;;;;4957272;28;19921;-79
2023/05/11 08:39:44;;;;;;;;;;;16.40;99.90;;;;;;4954698;28;19910;-78
2023/05/11 08:42:12;;;;;;;;;;;16.40;99.90;;;;;;4953546;28;19911;-78
2023/05/11 08:44:41;;;;;;;;;;;16.50;99.90;;;;;;4957578;28;19914;-79
2023/05/11 08:47:06;;;;;;;;;;;16.60;99.90;;;;;;4952461;28;19914;-66
2023/05/11 08:49:33;;;;;;;;;;;16.80;99.90;;;;;;4953016;28;20438;-65
2023/05/11 08:51:58;;;;;;;;;;;17.00;99.90;;;;;;4949837;28;19918;-65
2023/05/11 08:54:24;;;;;;;;;;;17.00;99.90;;;;;;4952918;28;20331;-65
2023/05/11 08:56:50;;;;;;;;;;;16.90;99.90;;;;;;4953335;28;20382;-65
2023/05/11 08:59:17;;;;;;;;;;;17.00;99.90;;;;;;4951374;28;19914;-65
2023/05/11 09:01:43;;;;;;;;;;;17.10;99.90;;;;;;4951123;28;19954;-65
2023/05/11 09:04:09;;;;;;;;;;;17.30;99.90;;;;;;4936742;28;19918;-65
2023/05/11 09:06:35;;;;;;;;;;;17.40;99.90;;;;;;4933412;28;19918;-65
2023/05/11 09:09:01;;;;;;;;;;;17.30;99.30;;;;;;4937651;28;20552;-77
2023/05/11 09:11:29;;;;;;;;;;;17.30;99.90;;;;;;4941068;28;21724;-77
2023/05/11 09:13:55;;;;;;;;;;;17.40;99.70;;;;;;4954435;28;19918;-77
2023/05/11 09:16:20;;;;;;;;;;;17.40;99.30;;;;;;4944969;28;19925;-77
2023/05/11 09:18:46;;;;;;;;;;;17.50;99.30;;;;;;4941696;28;20400;-76
2023/05/11 09:21:12;;;;;;;;;;;17.50;98.80;;;;;;4945686;28;19929;-76
2023/05/11 09:23:39;;;;;;;;;;;17.50;99.90;;;;;;4954204;28;19915;-77
2023/05/11 09:26:12;;;;;;;;;;;17.70;99.10;;;;;;4945196;28;19918;-65
2023/05/11 09:28:37;;;;;;;;;;;17.80;99.70;;;;;;4954259;28;19953;-65
2023/05/11 09:31:03;;;;;;;;;;;17.90;99.70;;;;;;4951877;28;20418;-66
2023/05/11 09:33:28;;;;;;;;;;;17.90;99.40;;;;;;4954909;28;19914;-65
2023/05/11 09:35:54;;;;;;;;;;;18.00;99.90;;;;;;4951525;28;19918;-66
2023/05/11 09:38:21;;;;;;;;;;;18.20;99.40;;;;;;4955977;28;19920;-65
2023/05/11 09:40:50;;;;;;;;;;;18.40;99.00;;;;;;4953451;28;19932;-65
2023/05/11 09:43:25;;;;;;;;;;;18.50;97.60;;;;;;4955870;28;19962;-65
2023/05/11 09:45:55;;;;;;;;;;;18.50;98.80;;;;;;4952216;28;19997;-77
2023/05/11 09:48:20;;;;;;;;;;;18.60;98.60;;;;;;4951440;28;20039;-78
2023/05/11 09:50:47;;;;;;;;;;;18.70;97.00;;;;;;4957751;28;20440;-80
2023/05/11 09:53:12;;;;;;;;;;;18.70;96.60;;;;;;4956032;28;19914;-78
2023/05/11 09:55:38;;;;;;;;;;;18.70;96.40;;;;;;4958331;28;19918;-77
2023/05/11 09:58:03;;;;;;;;;;;18.80;96.70;;;;;;4955898;28;19913;-78
2023/05/11 10:00:29;;;;;;;;;;;18.90;94.40;;;;;;4955816;28;20532;-73
2023/05/11 10:03:13;;;;;;;;;;;18.70;93.40;;;;;;4957772;28;19926;-77
2023/05/11 10:05:38;;;;;;;;;;;18.70;94.50;;;;;;4960940;28;19914;-66
2023/05/11 10:08:04;;;;;;;;;;;18.70;93.90;;;;;;4955589;28;20287;-67
2023/05/11 10:10:31;;;;;;;;;;;18.80;94.70;;;;;;4952768;28;19925;-66
2023/05/11 10:12:57;;;;;;;;;;;18.90;93.20;;;;;;4956816;28;19914;-66
2023/05/11 10:15:25;;;;;;;;;;;18.80;93.80;;;;;;4956286;28;20726;-66
2023/05/11 10:17:52;;;;;;;;;;;18.80;94.50;;;;;;4955434;28;20393;-66
2023/05/11 10:20:19;;;;;;;;;;;18.90;92.00;;;;;;4951452;28;20618;-66
2023/05/11 10:22:45;;;;;;;;;;;18.90;92.90;;;;;;4956238;28;19925;-76
2023/05/11 10:25:11;;;;;;;;;;;19.00;92.80;;;;;;4952106;28;19910;-66
2023/05/11 10:27:36;;;;;;;;;;;19.10;92.40;;;;;;4957840;28;19914;-66
2023/05/11 10:30:02;;;;;;;;;;;19.10;92.30;;;;;;4959759;28;20478;-66
2023/05/11 10:32:28;;;;;;;;;;;19.10;91.30;;;;;;4956339;28;19914;-65
2023/05/11 10:34:55;;;;;;;;;;;19.00;91.60;;;;;;4952768;28;19954;-65
2023/05/11 10:37:21;;;;;;;;;;;19.10;87.80;;;;;;4951930;28;20543;-65
2023/05/11 10:39:48;;;;;;;;;;;19.10;88.70;;;;;;4955679;28;20027;-66
2023/05/11 10:42:13;;;;;;;;;;;19.10;86.30;;;;;;4957343;28;19918;-75
2023/05/11 10:44:59;;;;;;;;;;;19.10;85.30;;;;;;4958095;28;19956;-77
2023/05/11 10:47:44;;;;;;;;;;;19.10;84.70;;;;;;4961548;28;19948;-77
2023/05/11 10:50:15;;;;;;;;;;;19.00;86.40;;;;;;4950839;28;20019;-75
2023/05/11 10:53:03;;;;;;;;;;;19.10;86.10;;;;;;4955538;28;21312;-76
2023/05/11 10:55:44;;;;;;;;;;;19.20;85.40;;;;;;4954110;28;19918;-77
2023/05/11 10:58:29;;;;;;;;;;;19.30;86.90;;;;;;4952250;28;20005;-75
2023/05/11 11:01:03;;;;;;;;;;;19.40;84.60;;;;;;4947915;28;19921;-78
2023/05/11 11:03:29;;;;;;;;;;;19.40;80.80;;;;;;4952892;28;20510;-77
2023/05/11 11:05:55;;;;;;;;;;;19.40;80.40;;;;;;4956293;28;19915;-77
2023/05/11 11:08:21;;;;;;;;;;;19.30;79.60;;;;;;4949695;28;19944;-76
2023/05/11 11:10:48;;;;;;;;;;;19.20;80.50;;;;;;4955498;28;20286;-77
2023/05/11 11:13:14;;;;;;;;;;;19.20;79.30;;;;;;4956757;28;19925;-79
2023/05/11 11:15:51;;;;;;;;;;;19.30;76.00;;;;;;4953044;28;19921;-79
2023/05/11 11:18:22;;;;;;;;;;;19.30;77.50;;;;;;4955337;28;19921;-76
2023/05/11 11:20:49;;;;;;;;;;;19.50;74.70;;;;;;4952704;28;19926;-78
2023/05/11 11:23:33;;;;;;;;;;;19.60;73.10;;;;;;4955077;28;20052;-76
2023/05/11 11:25:59;;;;;;;;;;;19.50;73.50;;;;;;4953637;28;19981;-77
2023/05/11 11:28:25;;;;;;;;;;;19.50;74.80;;;;;;4959102;28;19921;-78
2023/05/11 11:31:09;;;;;;;;;;;19.50;69.60;;;;;;4953636;28;19949;-75
2023/05/11 11:33:35;;;;;;;;;;;19.50;77.20;;;;;;4950704;28;19914;-75
2023/05/11 11:36:00;;;;;;;;;;;19.60;67.70;;;;;;4951311;28;19910;-77
2023/05/11 11:38:26;;;;;;;;;;;19.40;68.70;;;;;;4953117;28;20492;-66
2023/05/11 11:40:51;;;;;;;;;;;19.30;68.80;;;;;;4953860;28;20665;-76
2023/05/11 11:43:21;;;;;;;;;;;19.20;67.40;;;;;;4948930;28;19918;-74
2023/05/11 11:45:52;;;;;;;;;;;19.20;67.00;;;;;;4954664;28;19953;-76
2023/05/11 11:48:37;;;;;;;;;;;19.20;66.90;;;;;;4948118;28;19928;-76
2023/05/11 11:51:07;;;;;;;;;;;19.30;65.10;;;;;;4935464;28;20359;-75
2023/05/11 11:53:43;;;;;;;;;;;19.30;65.40;;;;;;4947963;28;20033;-76
2023/05/11 11:56:14;;;;;;;;;;;19.40;66.80;;;;;;4939909;28;19914;-77
2023/05/11 11:58:40;;;;;;;;;;;19.40;66.50;;;;;;4956196;28;19921;-65
2023/05/11 12:01:10;;;;;;;;;;;19.50;65.20;;;;;;4943635;28;19926;-65
2023/05/11 12:03:36;;;;;;;;;;;19.70;67.30;;;;;;4945197;28;19927;-66
2023/05/11 12:06:04;;;;;;;;;;;19.80;65.10;;;;;;4944476;28;19914;-65
2023/05/11 12:08:30;;;;;;;;;;;19.80;66.50;;;;;;4945456;28;20379;-65
2023/05/11 12:11:00;;;;;;;;;;;19.90;65.40;;;;;;4947962;28;19917;-65
2023/05/11 12:13:25;;;;;;;;;;;19.90;65.40;;;;;;4943184;28;20018;-65
2023/05/11 12:16:08;;;;;;;;;;;19.90;65.10;;;;;;4946309;28;19914;-65
2023/05/11 12:18:33;;;;;;;;;;;19.80;64.10;;;;;;4946310;28;19914;-65
2023/05/11 12:20:59;;;;;;;;;;;19.70;63.50;;;;;;4946860;28;21150;-65
2023/05/11 12:23:25;;;;;;;;;;;19.60;64.40;;;;;;4946308;28;20012;-65
2023/05/11 12:26:01;;;;;;;;;;;19.50;64.80;;;;;;4949899;28;20327;-65
2023/05/11 12:28:26;;;;;;;;;;;19.60;64.80;;;;;;4949101;28;19921;-65
2023/05/11 12:30:56;;;;;;;;;;;19.70;65.30;;;;;;4937177;28;20266;-65
2023/05/11 12:33:22;;;;;;;;;;;19.70;64.70;;;;;;4950116;28;19976;-65
2023/05/11 12:35:55;;;;;;;;;;;19.60;61.60;;;;;;4945131;28;21007;-65
2023/05/11 12:38:21;;;;;;;;;;;19.40;61.20;;;;;;4952075;28;19914;-77
2023/05/11 12:40:51;;;;;;;;;;;19.30;62.20;;;;;;4944072;28;19933;-75
2023/05/11 12:43:20;;;;;;;;;;;19.20;62.20;;;;;;4940468;28;19926;-74
2023/05/11 12:45:46;;;;;;;;;;;19.30;61.10;;;;;;4945138;28;19915;-74
2023/05/11 12:48:12;;;;;;;;;;;19.50;63.70;;;;;;4946904;28;19925;-74
2023/05/11 12:50:39;;;;;;;;;;;19.70;63.20;;;;;;4949032;28;19921;-73
2023/05/11 12:53:11;;;;;;;;;;;19.90;59.60;;;;;;4948076;28;19946;-73
2023/05/11 12:55:37;;;;;;;;;;;20.00;59.90;;;;;;4948379;28;20492;-66
2023/05/11 12:58:21;;;;;;;;;;;19.80;60.10;;;;;;4948188;28;19918;-65
2023/05/11 13:00:56;;;;;;;;;;;19.80;60.00;;;;;;4951621;28;20005;-65
2023/05/11 13:03:29;;;;;;;;;;;19.70;61.10;;;;;;4950358;28;19926;-64
2023/05/11 13:06:11;;;;;;;;;;;19.80;60.00;;;;;;4950524;28;19960;-65
2023/05/11 13:08:43;;;;;;;;;;;19.90;59.30;;;;;;4948783;28;19980;-65
2023/05/11 13:11:25;;;;;;;;;;;19.90;60.60;;;;;;4936753;28;19918;-65
2023/05/11 13:13:51;;;;;;;;;;;20.00;57.50;;;;;;4947714;28;19910;-75
2023/05/11 13:16:23;;;;;;;;;;;20.00;58.10;;;;;;4947054;28;20160;-72
2023/05/11 13:18:57;;;;;;;;;;;20.10;58.30;;;;;;4947964;28;19919;-77
2023/05/11 13:21:23;;;;;;;;;;;20.10;59.60;;;;;;4943102;28;19930;-74
2023/05/11 13:23:49;;;;;;;;;;;20.10;59.10;;;;;;4946129;28;19914;-75
2023/05/11 13:26:20;;;;;;;;;;;20.20;59.50;;;;;;4952602;28;20063;-74
2023/05/11 13:28:46;;;;;;;;;;;20.20;59.60;;;;;;4951141;28;20025;-73
2023/05/11 13:31:11;;;;;;;;;;;20.20;59.70;;;;;;4950000;28;19919;-72
2023/05/11 13:33:37;;;;;;;;;;;20.30;60.30;;;;;;4951142;28;19929;-74
2023/05/11 13:36:02;;;;;;;;;;;20.30;60.00;;;;;;4951866;28;20021;-73
2023/05/11 13:38:28;;;;;;;;;;;20.30;59.70;;;;;;4945694;28;19918;-73
2023/05/11 13:40:53;;;;;;;;;;;20.20;60.10;;;;;;4948093;28;19933;-74
2023/05/11 13:43:19;;;;;;;;;;;20.20;59.40;;;;;;4941355;28;19949;-74
2023/05/11 13:45:45;;;;;;;;;;;20.30;59.90;;;;;;4949088;28;19956;-77
2023/05/11 13:48:10;;;;;;;;;;;20.30;58.90;;;;;;4946435;28;19918;-76
2023/05/11 13:50:36;;;;;;;;;;;20.30;59.10;;;;;;4950793;28;19910;-75
2023/05/11 13:53:01;;;;;;;;;;;20.30;58.50;;;;;;4948477;28;19926;-74
2023/05/11 13:55:28;;;;;;;;;;;20.40;59.00;;;;;;4949765;28;19914;-65
2023/05/11 13:57:53;;;;;;;;;;;20.40;59.10;;;;;;4951176;28;19914;-65
2023/05/11 14:00:19;;;;;;;;;;;20.30;57.60;;;;;;4952193;28;19929;-65
2023/05/11 14:02:45;;;;;;;;;;;20.30;58.00;;;;;;4942885;28;19926;-65
2023/05/11 14:05:10;;;;;;;;;;;20.20;57.90;;;;;;4951120;28;19914;-67
2023/05/11 14:07:36;;;;;;;;;;;20.30;57.70;;;;;;4947417;28;19914;-66
2023/05/11 14:10:02;;;;;;;;;;;20.30;57.10;;;;;;4943136;28;19960;-65
2023/05/11 14:12:28;;;;;;;;;;;20.40;57.10;;;;;;4952042;28;20004;-76
2023/05/11 14:14:53;;;;;;;;;;;20.40;58.40;;;;;;4948123;28;19918;-74
2023/05/11 14:17:19;;;;;;;;;;;20.50;57.00;;;;;;4944376;28;20367;-78